createdAt,value
2019-04-21T00:01:34.709Z,11.73
2019-04-21T00:04:12.463Z,12.95
2019-04-21T00:06:58.783Z,8.45
2019-04-21T00:09:26.053Z,11.03
2019-04-21T00:11:55.613Z,10.13
2019-04-21T00:14:22.697Z,9.98
2019-04-21T00:16:49.072Z,12.90
2019-04-21T00:19:19.078Z,8.58
2019-04-21T00:21:50.999Z,9.48
2019-04-21T00:24:28.946Z,12.53
2019-04-21T00:27:07.022Z,13.60
2019-04-21T00:32:05.248Z,14.47
2019-04-21T00:34:21.755Z,12.50
2019-04-21T00:37:03.102Z,10.13
2019-04-21T00:39:59.212Z,11.80
2019-04-21T00:42:14.557Z,10.55
2019-04-21T00:44:36.359Z,9.15
2019-04-21T00:47:16.906Z,9.60
2019-04-21T00:49:53.916Z,9.98
2019-04-21T00:52:58.117Z,8.28
2019-04-21T00:55:20.368Z,10.95
2019-04-21T00:57:44.948Z,8.68
2019-04-21T01:00:11.918Z,9.90
2019-04-21T01:05:17.918Z,8.80
2019-04-21T01:10:09.587Z,9.03
2019-04-21T01:12:53.218Z,9.95
2019-04-21T01:15:26.142Z,11.48
2019-04-21T01:17:51.946Z,9.68
2019-04-21T01:20:13.229Z,7.33
2019-04-21T01:22:30.762Z,8.35
2019-04-21T01:25:09.076Z,9.88
2019-04-21T01:27:49.404Z,13.75
2019-04-21T01:30:22.266Z,9.30
2019-04-21T01:32:57.572Z,13.55
2019-04-21T01:35:30.104Z,9.88
2019-04-21T01:38:01.933Z,9.15
2019-04-21T01:40:41.009Z,8.15
2019-04-21T01:43:06.141Z,9.38
2019-04-21T01:45:31.795Z,10.78
2019-04-21T01:48:03.606Z,10.28
2019-04-21T01:50:36.288Z,9.95
2019-04-21T01:53:17.325Z,13.35
2019-04-21T01:55:54.417Z,8.13
2019-04-21T01:58:25.482Z,10.78
2019-04-21T02:01:00.778Z,9.35
2019-04-21T02:06:18.524Z,12.53
2019-04-21T02:08:36.494Z,9.20
2019-04-21T02:13:46.840Z,11.35
2019-04-21T02:16:20.209Z,10.40
2019-04-21T02:18:44.436Z,8.05
2019-04-21T02:21:09.487Z,9.80
2019-04-21T02:23:54.305Z,10.75
2019-04-21T02:26:23.077Z,9.85
2019-04-21T02:28:56.302Z,11.75
2019-04-21T02:31:37.103Z,12.35
2019-04-21T02:34:18.446Z,8.90
2019-04-21T02:39:16.466Z,12.93
2019-04-21T02:41:45.052Z,10.82
2019-04-21T02:44:22.480Z,11.40
2019-04-21T02:46:46.697Z,12.20
2019-04-21T02:50:04.914Z,12.20
2019-04-21T02:51:42.051Z,16.20
2019-04-21T02:56:58.626Z,16.32
2019-04-21T03:04:53.298Z,12.82
2019-04-21T03:07:21.602Z,10.30
2019-04-21T03:09:49.708Z,13.58
2019-04-21T03:12:22.086Z,10.53
2019-04-21T03:17:48.796Z,11.73
2019-04-21T03:20:03.012Z,11.25
2019-04-21T03:22:32.465Z,16.32
2019-04-21T03:27:57.362Z,12.85
2019-04-21T03:30:10.946Z,10.03
2019-04-21T03:37:37.006Z,11.22
2019-04-21T03:45:25.333Z,14.43
2019-04-21T03:47:44.894Z,17.65
2019-04-21T03:50:22.732Z,12.23
2019-04-21T03:52:53.703Z,12.20
2019-04-21T04:01:00.384Z,12.68
2019-04-21T04:16:19.671Z,12.00
2019-04-21T04:18:53.766Z,12.15
2019-04-21T04:21:22.548Z,12.68
2019-04-21T04:28:56.272Z,10.60
2019-04-21T04:36:40.507Z,12.85
2019-04-21T04:39:26.115Z,12.93
2019-04-21T04:44:30.319Z,13.18
2019-04-21T04:47:01.842Z,14.45
2019-04-21T04:49:36.418Z,13.58
2019-04-21T04:52:10.134Z,13.65
2019-04-21T04:54:40.927Z,14.93
2019-04-21T05:04:39.669Z,12.13
2019-04-21T05:09:30.681Z,10.60
2019-04-21T05:12:20.992Z,16.35
2019-04-21T05:14:41.049Z,11.60
2019-04-21T05:17:03.861Z,11.75
2019-04-21T05:19:42.833Z,9.20
2019-04-21T05:22:12.178Z,11.50
2019-04-21T05:24:30.319Z,7.92
2019-04-21T05:26:58.465Z,11.00
2019-04-21T05:29:37.792Z,12.95
2019-04-21T05:32:17.277Z,11.90
2019-04-21T05:34:50.406Z,12.40
2019-04-21T05:37:25.851Z,10.85
2019-04-21T05:39:52.315Z,10.82
2019-04-21T05:42:23.823Z,9.98
2019-04-21T05:47:39.802Z,15.03
2019-04-21T05:50:06.419Z,12.07
2019-04-21T05:52:35.311Z,13.93
2019-04-21T05:55:16.861Z,13.93
2019-04-21T05:57:47.883Z,12.98
2019-04-21T06:00:19.671Z,12.07
2019-04-21T06:02:52.012Z,11.80
2019-04-21T06:07:53.755Z,12.60
2019-04-21T06:10:27.427Z,16.15
2019-04-21T06:12:59.905Z,13.43
2019-04-21T06:15:41.745Z,12.98
2019-04-21T06:18:06.403Z,9.80
2019-04-21T06:20:33.465Z,15.45
2019-04-21T06:23:04.235Z,13.88
2019-04-21T06:28:12.167Z,10.10
2019-04-21T06:30:54.924Z,12.83
2019-04-21T06:33:10.728Z,10.73
2019-04-21T06:36:07.790Z,12.13
2019-04-21T06:38:28.232Z,11.47
2019-04-21T06:40:50.102Z,11.73
2019-04-21T06:43:42.051Z,10.20
2019-04-21T06:45:55.802Z,11.10
2019-04-21T06:48:28.473Z,13.80
2019-04-21T06:51:03.170Z,12.67
2019-04-21T06:53:35.787Z,9.33
2019-04-21T06:56:02.033Z,9.47
2019-04-21T06:58:27.839Z,10.13
2019-04-21T07:01:05.464Z,10.30
2019-04-21T07:03:38.885Z,10.20
2019-04-21T07:06:08.120Z,10.93
2019-04-21T07:08:44.794Z,12.10
2019-04-21T07:11:12.437Z,10.77
2019-04-21T07:13:41.583Z,8.33
2019-04-21T07:16:12.039Z,10.07
2019-04-21T07:18:54.150Z,12.57
2019-04-21T07:21:14.127Z,9.80
2019-04-21T07:23:48.935Z,11.53
2019-04-21T07:26:23.775Z,10.93
2019-04-21T07:28:59.795Z,12.00
2019-04-21T07:31:20.795Z,9.27
2019-04-21T07:34:02.003Z,11.67
2019-04-21T07:36:30.510Z,11.97
2019-04-21T07:38:49.739Z,11.30
2019-04-21T07:41:15.819Z,8.87
2019-04-21T07:43:55.255Z,9.57
2019-04-21T07:46:25.625Z,9.73
2019-04-21T07:49:07.442Z,10.60
2019-04-21T07:51:56.538Z,9.70
2019-04-21T07:54:32.044Z,9.07
2019-04-21T07:56:39.869Z,10.03
2019-04-21T07:59:40.889Z,9.53
2019-04-21T08:01:56.403Z,10.07
2019-04-21T08:04:49.558Z,11.27
2019-04-21T08:06:57.156Z,8.47
2019-04-21T08:09:33.083Z,9.20
2019-04-21T08:12:01.388Z,8.80
2019-04-21T08:14:49.430Z,10.87
2019-04-21T08:17:03.217Z,8.93
2019-04-21T08:19:33.818Z,11.83
2019-04-21T08:22:12.657Z,10.03
2019-04-21T08:24:35.224Z,8.33
2019-04-21T08:27:14.186Z,9.50
2019-04-21T08:29:42.096Z,8.80
2019-04-21T08:34:43.242Z,10.37
2019-04-21T08:37:15.118Z,8.07
2019-04-21T08:39:59.408Z,8.27
2019-04-21T08:42:18.529Z,8.83
2019-04-21T08:44:50.007Z,8.37
2019-04-21T08:47:20.428Z,8.50
2019-04-21T08:49:47.582Z,8.67
2019-04-21T08:52:36.250Z,7.77
2019-04-21T08:55:11.149Z,8.40
2019-04-21T08:58:00.408Z,7.87
2019-04-21T09:00:32.399Z,9.73
2019-04-21T09:03:11.730Z,9.80
2019-04-21T09:05:35.690Z,8.27
2019-04-21T09:08:10.577Z,8.47
2019-04-21T09:10:42.227Z,8.27
2019-04-21T09:13:10.274Z,7.80
2019-04-21T09:15:41.910Z,6.80
2019-04-21T09:18:11.967Z,8.50
2019-04-21T09:23:15.432Z,9.43
2019-04-21T09:25:53.175Z,9.90
2019-04-21T09:28:16.720Z,8.00
2019-04-21T09:30:39.631Z,7.63
2019-04-21T09:33:05.283Z,7.30
2019-04-21T09:35:35.812Z,6.97
2019-04-21T09:38:17.112Z,8.03
2019-04-21T09:40:42.332Z,6.80
2019-04-21T09:43:11.375Z,9.30
2019-04-21T09:45:40.506Z,7.40
2019-04-21T09:48:16.694Z,8.33
2019-04-21T09:50:41.530Z,7.47
2019-04-21T09:53:20.684Z,7.43
2019-04-21T09:55:50.534Z,7.87
2019-04-21T09:58:24.217Z,9.30
2019-04-21T10:00:57.285Z,8.93
2019-04-21T10:03:17.993Z,7.47
2019-04-21T10:05:47.695Z,8.13
2019-04-21T10:08:17.232Z,6.70
2019-04-21T10:10:46.920Z,8.90
2019-04-21T10:13:17.129Z,8.97
2019-04-21T10:15:48.572Z,8.70
2019-04-21T10:18:22.745Z,7.60
2019-04-21T10:20:52.220Z,7.77
2019-04-21T10:23:21.804Z,7.73
2019-04-21T10:25:52.279Z,7.70
2019-04-21T10:28:23.000Z,6.87
2019-04-21T10:30:52.932Z,8.50
2019-04-21T10:33:22.390Z,6.70
2019-04-21T10:35:52.981Z,8.80
2019-04-21T10:38:30.201Z,6.13
2019-04-21T10:40:53.822Z,6.90
2019-04-21T10:43:24.365Z,9.33
2019-04-21T10:45:54.869Z,5.67
2019-04-21T10:48:25.210Z,6.33
2019-04-21T10:50:54.995Z,5.53
2019-04-21T10:53:27.013Z,6.37
2019-04-21T10:56:10.478Z,6.70
2019-04-21T10:58:34.046Z,7.20
2019-04-21T11:01:14.413Z,6.17
2019-04-21T11:04:00.530Z,6.23
2019-04-21T11:06:30.882Z,5.23
2019-04-21T11:09:03.049Z,7.07
2019-04-21T11:11:32.083Z,5.20
2019-04-21T11:14:02.445Z,5.13
2019-04-21T11:16:33.224Z,6.43
2019-04-21T11:19:03.945Z,5.30
2019-04-21T11:21:34.630Z,5.50
2019-04-21T11:24:04.310Z,5.87
2019-04-21T11:26:33.939Z,14.77
2019-04-21T11:29:05.091Z,8.07
2019-04-21T11:31:34.738Z,6.97
2019-04-21T11:34:05.142Z,6.87
2019-04-21T11:36:35.306Z,4.90
2019-04-21T11:39:22.014Z,5.80
2019-04-21T11:41:39.921Z,5.70
2019-04-21T11:44:09.875Z,5.67
2019-04-21T11:46:40.402Z,5.57
2019-04-21T11:49:10.426Z,6.70
2019-04-21T11:51:40.775Z,5.00
2019-04-21T11:54:10.846Z,4.40
2019-04-21T11:56:40.963Z,6.30
2019-04-21T11:59:10.533Z,4.77
2019-04-21T12:01:41.457Z,5.27
2019-04-21T12:04:11.737Z,4.43
2019-04-21T12:06:45.419Z,5.60
2019-04-21T12:09:12.512Z,5.53
2019-04-21T12:11:43.253Z,4.73
2019-04-21T12:14:14.118Z,5.30
2019-04-21T12:16:43.760Z,5.43
2019-04-21T12:19:14.296Z,5.60
2019-04-21T12:21:54.563Z,4.90
2019-04-21T12:24:15.412Z,5.13
2019-04-21T12:26:46.251Z,5.57
2019-04-21T12:29:16.673Z,4.87
2019-04-21T12:32:05.541Z,6.17
2019-04-21T12:34:36.260Z,5.03
2019-04-21T12:37:06.680Z,4.83
2019-04-21T12:39:36.882Z,4.90
2019-04-21T12:42:06.820Z,5.43
2019-04-21T12:44:37.153Z,5.47
2019-04-21T12:47:07.947Z,4.90
2019-04-21T12:49:38.096Z,5.63
2019-04-21T12:52:11.435Z,4.97
2019-04-21T12:54:41.791Z,6.13
2019-04-21T12:57:11.822Z,4.10
2019-04-21T12:59:42.530Z,4.53
2019-04-21T13:02:13.640Z,4.10
2019-04-21T13:04:43.959Z,4.87
2019-04-21T13:07:13.623Z,5.67
2019-04-21T13:09:44.328Z,6.70
2019-04-21T13:12:15.229Z,4.47
2019-04-21T13:14:44.826Z,6.33
2019-04-21T13:17:15.224Z,9.50
2019-04-21T13:19:45.302Z,5.13
2019-04-21T13:22:16.068Z,5.27
2019-04-21T13:24:45.626Z,5.23
2019-04-21T13:27:15.609Z,4.17
2019-04-21T13:29:46.233Z,5.67
2019-04-21T13:32:16.361Z,6.10
2019-04-21T13:34:46.290Z,4.50
2019-04-21T13:37:17.554Z,4.20
2019-04-21T13:40:21.115Z,4.70
2019-04-21T13:42:39.978Z,6.57
2019-04-21T13:45:08.229Z,4.80
2019-04-21T13:47:38.668Z,4.73
2019-04-21T13:50:11.078Z,5.23
2019-04-21T13:52:40.813Z,4.67
2019-04-21T13:55:11.849Z,4.40
2019-04-21T13:57:41.408Z,5.93
2019-04-21T14:00:13.061Z,4.50
2019-04-21T14:02:42.871Z,4.37
2019-04-21T14:05:15.491Z,4.43
2019-04-21T14:07:44.149Z,4.37
2019-04-21T14:10:16.040Z,4.17
2019-04-21T14:12:46.754Z,3.67
2019-04-21T14:15:18.074Z,6.10
2019-04-21T14:17:48.916Z,4.43
2019-04-21T14:20:19.527Z,4.90
2019-04-21T14:22:49.685Z,4.40
2019-04-21T14:25:19.622Z,4.57
2019-04-21T14:27:51.903Z,4.20
2019-04-21T14:30:22.771Z,4.27
2019-04-21T14:32:53.994Z,3.97
2019-04-21T14:35:25.015Z,3.97
2019-04-21T14:37:54.719Z,5.80
2019-04-21T14:40:27.631Z,3.60
2019-04-21T14:42:56.197Z,4.30
2019-04-21T14:45:40.697Z,4.13
2019-04-21T14:48:29.447Z,4.40
2019-04-21T14:51:04.584Z,4.70
2019-04-21T14:53:36.071Z,4.10
2019-04-21T14:56:07.064Z,4.23
2019-04-21T14:58:37.096Z,4.30
2019-04-21T15:01:08.315Z,4.90
2019-04-21T15:03:39.478Z,5.30
2019-04-21T15:06:09.373Z,6.07
2019-04-21T15:08:39.495Z,5.73
2019-04-21T15:11:09.600Z,4.10
2019-04-21T15:13:39.701Z,5.77
2019-04-21T15:16:09.295Z,5.60
2019-04-21T15:18:39.062Z,4.17
2019-04-21T15:21:08.753Z,4.87
2019-04-21T15:23:38.367Z,4.53
2019-04-21T15:26:08.288Z,4.13
2019-04-21T15:28:39.101Z,4.73
2019-04-21T15:31:13.445Z,4.63
2019-04-21T15:33:41.241Z,4.97
2019-04-21T15:36:11.269Z,4.77
2019-04-21T15:38:40.843Z,5.00
2019-04-21T15:41:10.948Z,4.20
2019-04-21T15:43:42.611Z,4.37
2019-04-21T15:46:13.054Z,5.50
2019-04-21T15:48:42.770Z,4.20
2019-04-21T15:51:13.574Z,5.30
2019-04-21T15:53:45.817Z,5.07
2019-04-21T15:56:28.995Z,4.27
2019-04-21T15:58:58.935Z,4.70
2019-04-21T16:01:28.334Z,4.50
2019-04-21T16:04:00.411Z,5.63
2019-04-21T16:06:29.671Z,4.50
2019-04-21T16:09:01.050Z,3.93
2019-04-21T16:11:31.632Z,4.47
2019-04-21T16:14:01.875Z,5.10
2019-04-21T16:16:32.691Z,4.77
2019-04-21T16:19:03.926Z,5.00
2019-04-21T16:21:38.394Z,4.87
2019-04-21T16:24:04.794Z,6.73
2019-04-21T16:26:34.995Z,5.40
2019-04-21T16:29:05.055Z,5.10
2019-04-21T16:31:34.691Z,4.57
2019-04-21T16:34:05.128Z,5.70
2019-04-21T16:36:35.849Z,3.97
2019-04-21T16:39:07.641Z,5.13
2019-04-21T16:41:38.342Z,4.10
2019-04-21T16:44:09.423Z,4.90
2019-04-21T16:46:38.937Z,4.57
2019-04-21T16:49:09.627Z,6.97
2019-04-21T16:51:40.301Z,4.97
2019-04-21T16:54:11.448Z,7.67
2019-04-21T16:56:45.690Z,4.80
2019-04-21T16:59:16.870Z,5.70
2019-04-21T17:01:46.842Z,5.70
2019-04-21T17:04:16.419Z,5.07
2019-04-21T17:06:47.131Z,5.30
2019-04-21T17:09:16.849Z,5.40
2019-04-21T17:11:46.971Z,5.00
2019-04-21T17:14:37.544Z,3.90
2019-04-21T17:17:15.652Z,5.30
2019-04-21T17:19:27.800Z,7.37
2019-04-21T17:21:52.103Z,4.10
2019-04-21T17:24:22.190Z,4.20
2019-04-21T17:26:53.213Z,3.77
2019-04-21T17:29:22.919Z,5.63
2019-04-21T17:31:53.199Z,5.70
2019-04-21T17:34:26.133Z,6.10
2019-04-21T17:36:55.058Z,6.17
2019-04-21T17:39:24.928Z,4.90
2019-04-21T17:42:05.271Z,4.63
2019-04-21T17:44:25.823Z,4.47
2019-04-21T17:47:01.416Z,5.30
2019-04-21T17:49:26.715Z,6.20
2019-04-21T17:52:19.468Z,4.30
2019-04-21T17:55:10.273Z,4.67
2019-04-21T17:57:54.465Z,5.50
2019-04-21T18:00:53.555Z,6.50
2019-04-21T18:03:01.899Z,5.87
2019-04-21T18:05:34.144Z,6.23
2019-04-21T18:07:54.568Z,4.60
2019-04-21T18:10:33.948Z,4.93
2019-04-21T18:12:59.246Z,5.90
2019-04-21T18:15:37.169Z,7.90
2019-04-21T18:17:52.473Z,7.40
2019-04-21T18:20:41.907Z,7.10
2019-04-21T18:23:44.342Z,7.63
2019-04-21T18:26:08.116Z,8.77
2019-04-21T18:28:34.684Z,6.20
2019-04-21T18:31:06.899Z,6.20
2019-04-21T18:33:40.491Z,9.73
2019-04-21T18:36:22.546Z,5.80
2019-04-21T18:39:04.185Z,6.93
2019-04-21T18:41:19.574Z,9.23
2019-04-21T18:47:07.313Z,7.23
2019-04-21T18:49:17.729Z,6.03
2019-04-21T18:52:18.143Z,8.00
2019-04-21T18:54:48.724Z,6.70
2019-04-21T18:57:17.253Z,8.50
2019-04-21T18:59:43.067Z,5.93
2019-04-21T19:02:13.571Z,5.37
2019-04-21T19:04:42.786Z,4.90
2019-04-21T19:07:27.550Z,6.10
2019-04-21T19:15:00.095Z,8.77
2019-04-21T19:22:38.740Z,6.00
2019-04-21T19:25:12.905Z,6.40
2019-04-21T19:27:42.230Z,7.63
2019-04-21T19:30:20.239Z,5.83
2019-04-21T19:32:45.445Z,7.40
2019-04-21T19:35:01.883Z,6.50
2019-04-21T19:37:40.089Z,5.47
2019-04-21T19:40:15.907Z,7.00
2019-04-21T19:42:43.776Z,8.67
2019-04-21T19:45:22.206Z,7.23
2019-04-21T19:47:56.528Z,6.33
2019-04-21T19:50:28.722Z,9.27
2019-04-21T19:52:54.516Z,11.03
2019-04-21T19:55:14.115Z,11.30
2019-04-21T19:57:45.038Z,14.67
2019-04-21T20:00:15.977Z,10.93
2019-04-21T20:02:46.368Z,12.03
2019-04-21T20:05:28.219Z,6.10
2019-04-21T20:08:05.011Z,10.87
2019-04-21T20:10:39.678Z,9.93
2019-04-21T20:13:14.747Z,9.60
2019-04-21T20:15:41.616Z,9.37
2019-04-21T20:18:05.979Z,7.83
2019-04-21T20:20:24.874Z,8.63
2019-04-21T20:22:56.071Z,7.87
2019-04-21T20:25:27.236Z,6.00
2019-04-21T20:28:04.965Z,9.40
2019-04-21T20:30:42.387Z,7.53
2019-04-21T20:35:58.704Z,7.20
2019-04-21T20:38:15.671Z,10.50
2019-04-21T20:40:41.208Z,7.97
2019-04-21T20:43:28.960Z,11.43
2019-04-21T20:46:00.444Z,12.30
2019-04-21T20:48:17.742Z,9.13
2019-04-21T20:51:00.564Z,12.80
2019-04-21T20:53:25.992Z,7.40
2019-04-21T20:55:52.895Z,10.17
2019-04-21T20:58:28.102Z,10.67
2019-04-21T21:01:20.276Z,14.80
2019-04-21T21:03:34.850Z,9.20
2019-04-21T21:05:58.572Z,11.60
2019-04-21T21:08:35.815Z,7.93
2019-04-21T21:11:00.259Z,9.57
2019-04-21T21:13:53.758Z,7.43
2019-04-21T21:16:13.998Z,9.67
2019-04-21T21:18:56.508Z,12.77
2019-04-21T21:21:11.423Z,12.40
2019-04-21T21:23:44.770Z,8.13
2019-04-21T21:26:16.021Z,6.53
2019-04-21T21:28:38.978Z,6.63
2019-04-21T21:31:24.923Z,8.80
2019-04-21T21:33:57.447Z,8.03
2019-04-21T21:36:19.635Z,8.03
2019-04-21T21:38:55.889Z,10.40
2019-04-21T21:41:14.069Z,8.70
2019-04-21T21:43:39.167Z,9.53
2019-04-21T21:46:27.164Z,8.03
2019-04-21T21:48:53.855Z,9.47
2019-04-21T21:51:20.522Z,9.60
2019-04-21T21:53:44.413Z,11.47
2019-04-21T21:56:14.489Z,11.12
2019-04-21T21:58:46.210Z,8.93
2019-04-21T22:01:20.956Z,8.83
2019-04-21T22:03:52.544Z,10.23
2019-04-21T22:06:23.376Z,7.10
2019-04-21T22:08:50.536Z,7.15
2019-04-21T22:11:20.194Z,10.27
2019-04-21T22:13:58.816Z,9.95
2019-04-21T22:16:23.000Z,10.43
2019-04-21T22:19:14.211Z,10.80
2019-04-21T22:21:41.534Z,14.70
2019-04-21T22:24:00.253Z,8.80
2019-04-21T22:26:27.264Z,11.35
2019-04-21T22:28:58.152Z,10.32
2019-04-21T22:31:32.180Z,10.85
2019-04-21T22:34:05.436Z,8.43
2019-04-21T22:36:44.422Z,9.15
2019-04-21T22:39:19.290Z,10.25
2019-04-21T22:41:39.238Z,12.30
2019-04-21T22:44:04.886Z,8.23
2019-04-21T22:46:36.036Z,10.55
2019-04-21T22:49:09.369Z,8.58
2019-04-21T22:51:41.521Z,9.60
2019-04-21T22:54:08.305Z,9.25
2019-04-21T22:56:50.469Z,8.63
2019-04-21T22:59:15.024Z,7.95
2019-04-21T23:01:46.101Z,8.58
2019-04-21T23:04:12.458Z,10.90
2019-04-21T23:06:44.303Z,6.85
2019-04-21T23:09:15.029Z,7.20
2019-04-21T23:11:49.179Z,8.05
2019-04-21T23:14:17.538Z,7.62
2019-04-21T23:16:53.661Z,7.25
2019-04-21T23:19:34.850Z,9.20
2019-04-21T23:22:12.125Z,7.17
2019-04-21T23:24:49.709Z,7.03
2019-04-21T23:27:09.228Z,8.93
2019-04-21T23:29:57.344Z,9.58
2019-04-21T23:32:11.009Z,9.05
2019-04-21T23:34:32.428Z,9.88
2019-04-21T23:37:03.220Z,7.87
2019-04-21T23:39:31.996Z,12.07
2019-04-21T23:42:01.335Z,7.55
2019-04-21T23:44:32.924Z,9.23
2019-04-21T23:47:06.480Z,12.78
2019-04-21T23:49:42.589Z,7.72
2019-04-21T23:52:09.981Z,9.63
2019-04-21T23:54:37.489Z,7.50
2019-04-21T23:57:14.085Z,9.25
2019-04-21T23:59:44.722Z,7.65
